»·PEaware :: N228DL KLAX-KSAN

N228DL :: KLAX-KSAN

FLIGHT INFORMATION

Flight Status: Arrived
Operator: Privately registered:
United States
More flights under this callsign
Pilot: Thiago S. (19132)
Aircraft: CESSNA 182 SKYLANE
(C182)
More flights by this aircraft type
Origin: KLAX Los Angeles Intl
United States
Destination: KSAN San Diego Intl-Lindbergh
United States
More flights between these airports :: More routes between these airports
Route: +
File this flight plan on PilotEdge
Remarks: CAT11
Altitude:
(Current/Filed)
7,500ft
Speed:
(Current/Filed)
0kts
Departed: 15-May-18 03:11 PM
Arrived: 15-May-18 04:14 PM
Distance/Time
Traveled:
31nm/1:03
Distance/Time
To Go:
Arrived

Flight Plot

Page will automatically refresh every two minutes.


Map Options




Map Legend


Flown Route
Filed Route
Departure Airport
Arrival Airport
Navaid (VOR, NDB)
Fix

Horizontal Profiles

Position Reports

Time Latitude Longitude Heading Altitude Ground
Speed
15-May-18 14:57 33.932166 -118.405916 86 129ft 0kts
15-May-18 14:58 33.932166 -118.405909 86 129ft 0kts
15-May-18 14:59 33.932166 -118.405902 86 129ft 0kts
15-May-18 15:00 33.932166 -118.405896 87 129ft 0kts
15-May-18 15:01 33.932167 -118.405890 87 129ft 0kts
15-May-18 15:02 33.932167 -118.405883 87 129ft 0kts
15-May-18 15:03 33.932167 -118.405876 87 129ft 0kts
15-May-18 15:04 33.932933 -118.404843 83 129ft 10kts
15-May-18 15:05 33.933620 -118.401367 356 129ft 10kts
15-May-18 15:06 33.934473 -118.398132 82 129ft 14kts
15-May-18 15:07 33.934877 -118.394196 82 129ft 6kts
15-May-18 15:08 33.935419 -118.390501 4 129ft 5kts
15-May-18 15:09 33.935484 -118.390504 349 129ft 0kts
15-May-18 15:10 33.935492 -118.390506 349 129ft 0kts
15-May-18 15:11 33.934908 -118.405676 251 747ft 89kts
15-May-18 15:12 33.930751 -118.436115 267 2172ft 98kts
15-May-18 15:13 33.929228 -118.470330 264 2807ft 116kts
15-May-18 15:14 33.926028 -118.512784 264 2702ft 133kts
15-May-18 15:15 33.908175 -118.540166 172 2903ft 119kts
15-May-18 15:16 33.875067 -118.534822 172 3349ft 114kts
15-May-18 15:17 33.843325 -118.529668 172 3882ft 115kts
15-May-18 15:18 33.811146 -118.524445 172 4464ft 117kts
15-May-18 15:19 33.778629 -118.519169 172 4966ft 118kts
15-May-18 15:20 33.746550 -118.509492 143 5426ft 121kts
15-May-18 15:21 33.724884 -118.478862 129 5879ft 120kts
15-May-18 15:22 33.706614 -118.445750 120 6370ft 119kts
15-May-18 15:23 33.689001 -118.411461 128 6758ft 121kts
15-May-18 15:24 33.665583 -118.382366 133 7109ft 121kts
15-May-18 15:25 33.641958 -118.352321 133 7401ft 132kts
15-May-18 15:26 33.615700 -118.318955 133 7384ft 140kts
15-May-18 15:27 33.588925 -118.284950 133 7337ft 142kts
15-May-18 15:28 33.562226 -118.250734 131 7355ft 138kts
15-May-18 15:29 33.536485 -118.215816 131 7364ft 139kts
15-May-18 15:30 33.510515 -118.181306 133 7360ft 139kts
15-May-18 15:31 33.483707 -118.147491 133 7357ft 139kts
15-May-18 15:32 33.458087 -118.115092 133 7368ft 138kts
15-May-18 15:33 33.431545 -118.079634 131 7360ft 138kts
15-May-18 15:34 33.406207 -118.045404 131 7386ft 137kts
15-May-18 15:35 33.380884 -118.011303 131 7402ft 137kts
15-May-18 15:36 33.355423 -117.977103 131 7415ft 137kts
15-May-18 15:37 33.329962 -117.942980 131 7430ft 137kts
15-May-18 15:38 33.304502 -117.908878 131 7443ft 137kts
15-May-18 15:39 33.278894 -117.874605 131 7448ft 138kts
15-May-18 15:40 33.253308 -117.840380 131 7463ft 138kts
15-May-18 15:41 33.227176 -117.805928 133 7372ft 142kts
15-May-18 15:42 33.199778 -117.772112 134 7316ft 141kts
15-May-18 15:43 33.172324 -117.738686 134 7282ft 139kts
15-May-18 15:44 33.145372 -117.705845 134 7349ft 138kts
15-May-18 15:45 33.118439 -117.673058 134 7385ft 138kts
15-May-18 15:46 33.091731 -117.640563 134 7421ft 138kts
15-May-18 15:47 33.064830 -117.606783 127 7367ft 140kts
15-May-18 15:48 33.054568 -117.561563 82 6811ft 149kts
15-May-18 15:49 33.061710 -117.513720 78 6156ft 145kts
15-May-18 15:50 33.069283 -117.469978 78 6080ft 134kts
15-May-18 15:51 33.076994 -117.425418 78 5688ft 141kts
15-May-18 15:52 33.084479 -117.379818 86 5406ft 134kts
15-May-18 15:53 33.070412 -117.339599 122 5434ft 135kts
15-May-18 15:54 33.043965 -117.308873 155 5396ft 134kts
15-May-18 15:55 33.009069 -117.292194 158 5374ft 137kts
15-May-18 15:56 32.974069 -117.275657 158 5356ft 135kts
15-May-18 15:57 32.938741 -117.258972 158 5190ft 143kts
15-May-18 15:58 32.899622 -117.240538 158 4252ft 144kts
15-May-18 15:59 32.862521 -117.223944 163 3695ft 143kts
15-May-18 16:00 32.825380 -117.211552 164 3426ft 109kts
15-May-18 16:01 32.799870 -117.203042 164 3118ft 104kts
15-May-18 16:02 32.770524 -117.193257 164 2483ft 105kts
15-May-18 16:03 32.749636 -117.174054 120 1618ft 91kts
15-May-18 16:04 32.739421 -117.151500 114 1360ft 69kts
15-May-18 16:05 32.728152 -117.149823 232 1285ft 55kts
15-May-18 16:06 32.728393 -117.169004 286 541ft 59kts
15-May-18 16:07 32.733659 -117.190317 287 559ft 83kts
15-May-18 16:08 32.754733 -117.215165 14 1059ft 121kts
15-May-18 16:09 32.758182 -117.186603 124 1544ft 114kts
15-May-18 16:10 32.743962 -117.151488 121 1341ft 86kts
15-May-18 16:11 32.733355 -117.131553 143 1098ft 70kts
15-May-18 16:12 32.723249 -117.143986 275 875ft 67kts
15-May-18 16:13 32.727839 -117.165814 285 321ft 68kts
15-May-18 16:14 32.732744 -117.186342 286 17ft 38kts
15-May-18 16:15 32.733916 -117.187560 13 17ft 0kts
15-May-18 16:16 32.733364 -117.184175 105 17ft 11kts
15-May-18 16:17 32.732125 -117.179298 106 17ft 17kts
15-May-18 16:18 32.732623 -117.176868 94 17ft 0kts
15-May-18 16:19 32.732623 -117.176868 94 17ft 0kts
15-May-18 16:20 33.673303 -117.873714 319 54ft 0kts
15-May-18 16:21 33.673303 -117.873714 319 54ft 0kts
15-May-18 16:22 33.673303 -117.873714 319 54ft 0kts
15-May-18 16:23 33.673303 -117.873714 319 54ft 0kts
15-May-18 16:24 33.673303 -117.873714 319 54ft 0kts
15-May-18 16:25 33.673303 -117.873714 319 54ft 0kts
15-May-18 16:26 33.673303 -117.873714 319 54ft 0kts

Navigation Log

Ident Type
1. KLAX Airport
2. KSAN Airport